Time;durP1;ratioP1;P1;durP2;ratioP2;P2;SDS_P1;SDS_P2;PMS_P1;PMS_P2;Temp;Humidity;BMP_temperature;BMP_pressure;BME280_temperature;BME280_humidity;BME280_pressure;Samples;Min_cycle;Max_cycle;Signal;HPM_P1;HPM_P2
2021/06/20 00:00:35;;;;;;;26.63;18.00;;;18.40;99.90;;;;;;4931351;29;20104;-66
2021/06/20 00:03:02;;;;;;;30.17;20.45;;;18.30;99.90;;;;;;4931684;29;20072;-66
2021/06/20 00:05:46;;;;;;;31.08;21.20;;;18.30;99.90;;;;;;4931465;29;20064;-66
2021/06/20 00:08:12;;;;;;;32.15;22.17;;;18.30;99.90;;;;;;4931640;29;20056;-66
2021/06/20 00:10:40;;;;;;;29.13;20.92;;;18.20;99.90;;;;;;4931311;29;20044;-66
2021/06/20 00:13:06;;;;;;;29.83;21.15;;;18.20;99.90;;;;;;4931099;29;20087;-66
2021/06/20 00:15:34;;;;;;;37.75;23.45;;;18.20;99.90;;;;;;4931021;29;20528;-67
2021/06/20 00:18:01;;;;;;;31.27;21.50;;;18.20;99.90;;;;;;4931454;29;20519;-67
2021/06/20 00:20:30;;;;;;;37.03;23.88;;;18.20;99.90;;;;;;4929798;29;20044;-66
2021/06/20 00:22:56;;;;;;;38.93;24.60;;;18.20;99.90;;;;;;4931311;29;20040;-66
2021/06/20 00:25:24;;;;;;;31.70;22.75;;;18.10;99.90;;;;;;4930894;29;20064;-66
2021/06/20 00:27:50;;;;;;;32.00;22.55;;;17.90;99.90;;;;;;4925607;29;20500;-66
2021/06/20 00:30:19;;;;;;;31.55;22.48;;;17.90;99.90;;;;;;4930793;29;20063;-66
2021/06/20 00:32:46;;;;;;;33.95;22.40;;;17.90;99.90;;;;;;4931121;29;20132;-66
2021/06/20 00:35:13;;;;;;;32.22;23.45;;;17.90;99.90;;;;;;4931043;29;20059;-66
2021/06/20 00:37:39;;;;;;;35.88;22.90;;;17.80;99.90;;;;;;4929928;29;20055;-66
2021/06/20 00:40:06;;;;;;;27.90;20.05;;;17.80;99.90;;;;;;4930766;29;20048;-66
2021/06/20 00:42:33;;;;;;;34.40;22.85;;;17.80;99.90;;;;;;4930989;29;20107;-66
2021/06/20 00:44:59;;;;;;;30.35;20.55;;;17.80;99.90;;;;;;4931420;29;20048;-66
2021/06/20 00:47:25;;;;;;;29.17;20.38;;;17.90;99.90;;;;;;4930761;29;20048;-67
2021/06/20 00:49:51;;;;;;;30.08;20.95;;;17.80;99.90;;;;;;4922843;29;20108;-66
2021/06/20 00:52:18;;;;;;;34.10;22.27;;;17.90;99.90;;;;;;4924263;29;20048;-66
2021/06/20 00:54:47;;;;;;;28.50;20.98;;;17.90;99.90;;;;;;4931375;29;20052;-66
2021/06/20 00:57:19;;;;;;;31.38;22.77;;;18.00;99.90;;;;;;4929949;29;20074;-66
2021/06/20 00:59:46;;;;;;;27.15;19.00;;;18.00;99.90;;;;;;4930392;29;20229;-67
2021/06/20 01:02:12;;;;;;;26.17;19.90;;;17.90;99.90;;;;;;4930447;29;20055;-66
2021/06/20 01:04:40;;;;;;;25.35;19.58;;;17.90;99.90;;;;;;4930412;29;20087;-66
2021/06/20 01:07:06;;;;;;;29.42;20.45;;;17.90;99.90;;;;;;4918047;29;20048;-66
2021/06/20 01:09:32;;;;;;;25.38;19.15;;;17.90;99.90;;;;;;4930886;29;20155;-67
2021/06/20 01:11:59;;;;;;;27.30;18.40;;;17.90;99.90;;;;;;4930999;29;20040;-66
2021/06/20 01:14:25;;;;;;;24.95;18.13;;;18.00;99.90;;;;;;4929826;29;20048;-66
2021/06/20 01:16:55;;;;;;;24.52;18.73;;;18.00;99.90;;;;;;4930251;29;20044;-66
2021/06/20 01:19:21;;;;;;;28.95;19.55;;;18.00;99.90;;;;;;4930484;29;20048;-67
2021/06/20 01:21:48;;;;;;;26.15;19.50;;;18.00;99.90;;;;;;4929810;29;20559;-66
2021/06/20 01:24:14;;;;;;;26.17;19.63;;;17.90;99.90;;;;;;4930152;29;20059;-66
2021/06/20 01:26:40;;;;;;;27.60;19.42;;;17.90;99.90;;;;;;4928851;29;20046;-66
2021/06/20 01:29:12;;;;;;;29.25;23.35;;;17.80;99.90;;;;;;4930187;29;20064;-66
2021/06/20 01:31:38;;;;;;;28.83;22.00;;;17.80;99.90;;;;;;4930133;29;20108;-66
2021/06/20 01:34:06;;;;;;;30.05;22.25;;;17.80;99.90;;;;;;4930301;29;20044;-65
2021/06/20 01:36:33;;;;;;;33.00;23.58;;;17.80;99.90;;;;;;4929741;29;20103;-66
2021/06/20 01:38:59;;;;;;;31.23;23.42;;;17.70;99.90;;;;;;4929850;29;20055;-66
2021/06/20 01:41:25;;;;;;;29.13;22.40;;;17.70;99.90;;;;;;4929624;29;20054;-66
2021/06/20 01:43:51;;;;;;;29.67;21.67;;;17.60;99.90;;;;;;4930515;29;20072;-66
2021/06/20 01:46:17;;;;;;;37.33;24.85;;;17.60;99.90;;;;;;4930146;29;20111;-66
2021/06/20 01:48:43;;;;;;;35.53;23.65;;;17.70;99.90;;;;;;4930025;29;20056;-66
2021/06/20 01:51:09;;;;;;;37.90;25.48;;;17.60;99.90;;;;;;4924346;29;20045;-66
2021/06/20 01:53:35;;;;;;;30.95;24.58;;;17.60;99.90;;;;;;4921944;29;20044;-66
2021/06/20 01:56:01;;;;;;;35.22;24.23;;;17.60;99.90;;;;;;4928929;29;20051;-66
2021/06/20 01:58:27;;;;;;;38.88;27.75;;;17.60;99.90;;;;;;4929831;29;20469;-66
2021/06/20 02:00:56;;;;;;;43.83;28.92;;;17.60;99.90;;;;;;4929609;29;20111;-66
2021/06/20 02:03:25;;;;;;;42.92;29.52;;;17.70;99.90;;;;;;4929849;29;20071;-67
2021/06/20 02:05:52;;;;;;;37.37;26.23;;;17.70;99.90;;;;;;4929121;29;20063;-66
2021/06/20 02:08:19;;;;;;;37.42;26.80;;;17.60;99.90;;;;;;4929536;29;20059;-67
2021/06/20 02:10:46;;;;;;;42.70;29.33;;;17.60;99.90;;;;;;4928898;29;20051;-66
2021/06/20 02:13:13;;;;;;;32.97;24.77;;;17.60;99.90;;;;;;4928884;29;20051;-66
2021/06/20 02:15:38;;;;;;;33.55;25.33;;;17.60;99.90;;;;;;4929359;29;20052;-66
2021/06/20 02:18:05;;;;;;;44.65;27.65;;;17.70;99.90;;;;;;4929575;29;20075;-66
2021/06/20 02:20:31;;;;;;;44.67;29.10;;;17.70;99.90;;;;;;4928894;29;20103;-66
2021/06/20 02:22:56;;;;;;;40.20;27.52;;;17.70;99.90;;;;;;4929245;29;20051;-66
2021/06/20 02:25:23;;;;;;;38.28;27.60;;;17.70;99.90;;;;;;4929667;29;20060;-66
2021/06/20 02:27:51;;;;;;;39.72;27.02;;;17.70;99.90;;;;;;4929424;29;20050;-66
2021/06/20 02:30:18;;;;;;;35.45;26.23;;;17.70;99.90;;;;;;4929093;29;20080;-65
2021/06/20 02:32:44;;;;;;;41.55;30.15;;;17.80;99.90;;;;;;4928874;29;20072;-66
2021/06/20 02:35:12;;;;;;;46.90;29.80;;;17.80;99.90;;;;;;4928857;29;20123;-66
2021/06/20 02:37:39;;;;;;;47.60;30.83;;;17.70;99.90;;;;;;4929042;29;20047;-66
2021/06/20 02:40:08;;;;;;;39.33;29.45;;;17.70;99.90;;;;;;4929289;29;20072;-66
2021/06/20 02:42:34;;;;;;;44.13;29.65;;;17.60;99.90;;;;;;4928418;29;20083;-66
2021/06/20 02:45:01;;;;;;;44.30;30.63;;;17.70;99.90;;;;;;4928922;29;20584;-66
2021/06/20 02:47:27;;;;;;;40.80;30.52;;;17.60;99.90;;;;;;4928867;29;20135;-66
2021/06/20 02:49:53;;;;;;;43.55;30.25;;;17.60;99.90;;;;;;4928729;29;20052;-66
2021/06/20 02:52:20;;;;;;;40.15;28.17;;;17.60;99.90;;;;;;4923236;29;20532;-66
2021/06/20 02:54:49;;;;;;;43.33;30.42;;;17.60;99.90;;;;;;4929217;29;20075;-66
2021/06/20 02:57:26;;;;;;;38.47;28.48;;;17.60;99.90;;;;;;4926842;29;20046;-66
2021/06/20 02:59:53;;;;;;;38.67;27.45;;;17.60;99.90;;;;;;4928893;29;20051;-66
2021/06/20 03:02:19;;;;;;;45.45;30.92;;;17.50;99.90;;;;;;4928180;29;20496;-66
2021/06/20 03:04:47;;;;;;;38.22;28.27;;;17.50;99.90;;;;;;4928481;29;20060;-66
2021/06/20 03:07:13;;;;;;;38.00;27.92;;;17.50;99.90;;;;;;4928634;29;20500;-66
2021/06/20 03:09:40;;;;;;;40.40;29.63;;;17.50;99.90;;;;;;4928567;29;20040;-66
2021/06/20 03:12:07;;;;;;;34.22;26.98;;;17.50;99.90;;;;;;4929079;29;20082;-65
2021/06/20 03:14:35;;;;;;;41.63;31.98;;;17.60;99.90;;;;;;4931793;29;20112;-66
2021/06/20 03:17:03;;;;;;;39.95;28.92;;;17.60;99.90;;;;;;4932262;29;20048;-66
2021/06/20 03:19:30;;;;;;;45.42;31.25;;;17.70;99.90;;;;;;4932342;29;20052;-66
2021/06/20 03:22:02;;;;;;;38.50;27.85;;;17.60;99.90;;;;;;4932115;29;20044;-66
2021/06/20 03:24:28;;;;;;;37.22;28.63;;;17.60;99.90;;;;;;4932586;29;20072;-66
2021/06/20 03:26:54;;;;;;;37.17;27.98;;;17.60;99.90;;;;;;4932980;29;20127;-66
2021/06/20 03:29:20;;;;;;;42.63;30.38;;;17.60;99.90;;;;;;4932215;29;20040;-66
2021/06/20 03:31:46;;;;;;;44.25;31.08;;;17.70;99.90;;;;;;4931797;29;20096;-65
2021/06/20 03:34:12;;;;;;;38.95;30.45;;;17.60;99.90;;;;;;4932746;29;20051;-65
2021/06/20 03:36:38;;;;;;;39.03;29.20;;;17.60;99.90;;;;;;4932131;29;20115;-66
2021/06/20 03:39:05;;;;;;;41.63;30.98;;;17.70;99.90;;;;;;4932170;29;20048;-65
2021/06/20 03:41:31;;;;;;;36.92;28.48;;;17.70;99.90;;;;;;4931563;29;20059;-65
2021/06/20 03:43:56;;;;;;;39.30;30.83;;;17.70;99.90;;;;;;4932116;29;20420;-66
2021/06/20 03:46:22;;;;;;;35.92;28.27;;;17.70;99.90;;;;;;4931668;29;20104;-66
2021/06/20 03:48:49;;;;;;;39.25;28.75;;;17.70;99.90;;;;;;4931785;29;20051;-66
2021/06/20 03:51:15;;;;;;;37.95;28.75;;;17.70;99.90;;;;;;4927656;29;20120;-66
2021/06/20 03:53:42;;;;;;;37.97;29.50;;;17.70;99.90;;;;;;4923606;29;20044;-65
2021/06/20 03:56:08;;;;;;;36.05;27.63;;;17.80;99.90;;;;;;4931873;29;20131;-66
2021/06/20 03:58:34;;;;;;;33.10;27.02;;;17.80;99.90;;;;;;4932453;29;20088;-66
2021/06/20 04:01:00;;;;;;;33.13;29.20;;;17.80;99.90;;;;;;4931985;29;20050;-66
2021/06/20 04:03:26;;;;;;;32.28;26.90;;;17.90;99.90;;;;;;4931849;29;20584;-66
2021/06/20 04:05:52;;;;;;;35.67;29.02;;;17.90;99.90;;;;;;4931328;29;20068;-66
2021/06/20 04:08:17;;;;;;;32.53;25.77;;;18.00;99.90;;;;;;4931547;29;20087;-66
2021/06/20 04:10:43;;;;;;;29.10;25.23;;;18.00;99.90;;;;;;4931383;29;20079;-66
2021/06/20 04:13:09;;;;;;;30.67;25.50;;;18.00;99.90;;;;;;4931377;29;20047;-66
2021/06/20 04:15:35;;;;;;;30.75;25.23;;;18.10;99.90;;;;;;4930918;29;20040;-66
2021/06/20 04:18:01;;;;;;;29.33;26.13;;;18.10;99.90;;;;;;4931483;29;20048;-66
2021/06/20 04:20:27;;;;;;;30.45;25.10;;;18.10;99.90;;;;;;4929870;29;20048;-66
2021/06/20 04:22:53;;;;;;;28.20;25.10;;;18.20;99.90;;;;;;4930640;29;20068;-66
2021/06/20 04:25:18;;;;;;;28.42;25.42;;;18.20;99.90;;;;;;4931016;29;20053;-66
2021/06/20 04:27:47;;;;;;;29.65;24.88;;;18.30;99.90;;;;;;4931383;29;20044;-66
2021/06/20 04:30:15;;;;;;;29.42;26.33;;;18.30;99.90;;;;;;4931181;29;20051;-66
2021/06/20 04:32:42;;;;;;;29.92;26.73;;;18.30;99.90;;;;;;4930997;29;20048;-65
2021/06/20 04:35:11;;;;;;;34.08;28.55;;;18.30;99.90;;;;;;4930734;29;20056;-66
2021/06/20 04:37:37;;;;;;;33.72;28.92;;;18.30;99.90;;;;;;4931105;29;20123;-66
2021/06/20 04:40:04;;;;;;;35.08;29.83;;;18.30;99.90;;;;;;4930778;29;20051;-66
2021/06/20 04:42:41;;;;;;;32.15;28.70;;;18.30;99.90;;;;;;4931168;29;20059;-65
2021/06/20 04:45:09;;;;;;;31.05;27.73;;;18.30;99.90;;;;;;4931428;29;20063;-65
2021/06/20 04:47:35;;;;;;;32.00;28.42;;;18.30;99.90;;;;;;4931051;29;20048;-66
2021/06/20 04:50:05;;;;;;;32.88;28.20;;;18.30;99.90;;;;;;4930995;29;20048;-66
2021/06/20 04:52:31;;;;;;;32.45;29.05;;;18.30;99.90;;;;;;4925476;29;20403;-66
2021/06/20 04:54:57;;;;;;;31.85;27.02;;;18.40;99.90;;;;;;4930774;29;20524;-66
2021/06/20 04:57:28;;;;;;;28.98;25.98;;;18.40;99.90;;;;;;4930221;29;20044;-66
2021/06/20 04:59:57;;;;;;;31.50;28.15;;;18.50;99.90;;;;;;4930553;29;20059;-66
2021/06/20 05:02:23;;;;;;;32.58;28.38;;;18.50;99.90;;;;;;4930383;29;20044;-66
2021/06/20 05:04:49;;;;;;;32.67;28.17;;;18.50;99.90;;;;;;4930139;29;20111;-65
2021/06/20 05:07:16;;;;;;;33.17;28.70;;;18.60;99.90;;;;;;4944750;29;20060;-67
2021/06/20 05:09:42;;;;;;;32.00;28.00;;;18.60;99.90;;;;;;4930474;29;20048;-66
2021/06/20 05:12:09;;;;;;;30.63;27.40;;;18.60;99.90;;;;;;4930740;29;20475;-66
2021/06/20 05:14:36;;;;;;;30.65;27.38;;;18.60;99.90;;;;;;4929963;29;20052;-66
2021/06/20 05:17:02;;;;;;;29.90;26.52;;;18.60;99.90;;;;;;4930249;29;20044;-66
2021/06/20 05:19:28;;;;;;;29.48;26.02;;;18.70;99.90;;;;;;4930270;29;20447;-66
2021/06/20 05:21:54;;;;;;;29.23;26.00;;;18.70;99.90;;;;;;4930123;29;20044;-66
2021/06/20 05:24:20;;;;;;;29.48;26.38;;;18.80;99.90;;;;;;4929842;29;20052;-66
2021/06/20 05:26:46;;;;;;;27.77;24.77;;;18.80;99.90;;;;;;4930043;29;20598;-66
2021/06/20 05:29:12;;;;;;;29.00;24.65;;;18.90;99.90;;;;;;4930402;29;20442;-66
2021/06/20 05:31:38;;;;;;;28.05;23.83;;;18.90;99.90;;;;;;4930380;29;20115;-66
2021/06/20 05:34:04;;;;;;;25.05;22.45;;;19.00;99.90;;;;;;4929824;29;20048;-67
2021/06/20 05:36:30;;;;;;;25.05;22.17;;;19.00;99.90;;;;;;4929718;29;20048;-66
2021/06/20 05:38:56;;;;;;;25.63;22.85;;;19.10;99.90;;;;;;4930478;29;20052;-66
2021/06/20 05:41:21;;;;;;;26.02;23.42;;;19.20;99.90;;;;;;4930255;29;20055;-66
2021/06/20 05:43:47;;;;;;;26.45;23.67;;;19.20;99.90;;;;;;4929645;29;20081;-65
2021/06/20 05:46:13;;;;;;;27.77;24.85;;;19.30;99.90;;;;;;4929936;29;20056;-66
2021/06/20 05:48:39;;;;;;;29.20;24.00;;;19.40;99.90;;;;;;4929640;29;20052;-65
2021/06/20 05:51:05;;;;;;;26.95;24.15;;;19.50;99.90;;;;;;4929570;29;20050;-65
2021/06/20 05:53:31;;;;;;;24.67;22.15;;;19.60;99.90;;;;;;4929435;29;20060;-66
2021/06/20 05:55:57;;;;;;;25.80;23.10;;;19.70;99.90;;;;;;4929368;29;20048;-66
2021/06/20 05:58:23;;;;;;;24.92;22.30;;;19.70;99.90;;;;;;4930101;29;20063;-66
2021/06/20 06:00:49;;;;;;;24.63;20.13;;;19.80;99.90;;;;;;4928087;29;20112;-66
2021/06/20 06:03:15;;;;;;;18.58;15.15;;;19.90;99.90;;;;;;4929374;29;20059;-66
2021/06/20 06:05:40;;;;;;;17.40;14.68;;;19.90;99.90;;;;;;4928263;29;20112;-66
2021/06/20 06:08:06;;;;;;;17.35;13.75;;;20.00;99.90;;;;;;4929380;29;20074;-66
2021/06/20 06:10:32;;;;;;;15.80;14.10;;;20.00;99.90;;;;;;4928843;29;20048;-66
2021/06/20 06:12:59;;;;;;;19.33;15.40;;;20.00;99.90;;;;;;4928790;29;20089;-66
2021/06/20 06:15:29;;;;;;;16.02;14.13;;;19.90;99.90;;;;;;4928973;29;20048;-66
2021/06/20 06:17:56;;;;;;;16.92;13.98;;;19.90;99.90;;;;;;4928012;29;20445;-66
2021/06/20 06:20:22;;;;;;;16.40;13.48;;;19.90;99.90;;;;;;4929243;29;20100;-66
2021/06/20 06:22:48;;;;;;;18.25;14.52;;;19.90;99.90;;;;;;4929682;29;20055;-66
2021/06/20 06:25:14;;;;;;;16.40;14.27;;;19.90;99.90;;;;;;4927581;29;20052;-66
2021/06/20 06:27:41;;;;;;;19.13;16.25;;;19.90;99.90;;;;;;4928598;29;20040;-66
2021/06/20 06:30:10;;;;;;;17.88;15.73;;;20.00;99.90;;;;;;4928958;29;20059;-66
2021/06/20 06:32:37;;;;;;;18.67;15.90;;;20.00;99.90;;;;;;4929393;29;20048;-66
2021/06/20 06:35:04;;;;;;;19.02;15.85;;;20.00;99.90;;;;;;4929158;29;20056;-66
2021/06/20 06:37:30;;;;;;;17.60;15.80;;;20.00;99.90;;;;;;4928997;29;20473;-65
2021/06/20 06:39:55;;;;;;;19.55;15.65;;;20.00;99.90;;;;;;4927821;29;20048;-66
2021/06/20 06:42:25;;;;;;;18.45;16.10;;;20.00;99.90;;;;;;4929364;29;20080;-65
2021/06/20 06:44:56;;;;;;;20.27;16.40;;;20.00;99.90;;;;;;4928576;29;20051;-66
2021/06/20 06:47:23;;;;;;;18.73;16.63;;;19.90;99.90;;;;;;4928055;29;20059;-66
2021/06/20 06:49:50;;;;;;;18.73;16.00;;;19.90;99.90;;;;;;4927589;29;20080;-66
2021/06/20 06:52:16;;;;;;;18.08;14.32;;;19.90;99.90;;;;;;4927348;29;20052;-65
2021/06/20 06:54:50;;;;;;;12.80;11.50;;;19.90;99.90;;;;;;4927950;29;20051;-66
2021/06/20 06:57:21;;;;;;;11.90;10.52;;;19.90;99.90;;;;;;4927560;29;20134;-65
2021/06/20 06:59:47;;;;;;;9.50;8.30;;;19.90;99.90;;;;;;4927279;29;20504;-66
2021/06/20 07:02:14;;;;;;;10.52;9.43;;;19.90;99.90;;;;;;4926611;29;20115;-65
2021/06/20 07:04:40;;;;;;;13.77;11.05;;;19.80;99.90;;;;;;4928204;29;20044;-66
2021/06/20 07:07:06;;;;;;;12.15;10.52;;;19.80;99.90;;;;;;4926501;29;20135;-66
2021/06/20 07:09:32;;;;;;;13.27;11.82;;;19.70;99.90;;;;;;4928768;29;20052;-66
2021/06/20 07:11:58;;;;;;;11.80;10.00;;;19.90;99.90;;;;;;4927825;29;20048;-65
2021/06/20 07:14:24;;;;;;;10.05;8.18;;;19.90;99.90;;;;;;4926791;29;20032;-65
2021/06/20 07:16:50;;;;;;;10.48;8.60;;;20.10;99.90;;;;;;4927056;29;20060;-65
2021/06/20 07:19:16;;;;;;;11.45;9.25;;;20.20;99.90;;;;;;4927220;29;20048;-66
2021/06/20 07:21:42;;;;;;;13.25;10.32;;;20.10;99.90;;;;;;4927415;29;20386;-65
2021/06/20 07:24:08;;;;;;;11.20;9.55;;;20.30;99.90;;;;;;4928543;29;20048;-65
2021/06/20 07:26:34;;;;;;;10.27;9.07;;;20.30;99.90;;;;;;4928069;29;20072;-66
2021/06/20 07:29:00;;;;;;;11.23;10.13;;;20.30;99.90;;;;;;4928760;29;20048;-65
2021/06/20 07:31:26;;;;;;;11.93;10.60;;;20.10;99.90;;;;;;4927820;29;20048;-64
2021/06/20 07:33:52;;;;;;;12.18;9.50;;;20.00;99.90;;;;;;4927650;29;20044;-64
2021/06/20 07:36:18;;;;;;;11.32;10.10;;;20.00;99.90;;;;;;4926376;29;20119;-65
2021/06/20 07:38:45;;;;;;;12.57;9.90;;;19.90;99.90;;;;;;4926677;29;20497;-64
2021/06/20 07:41:12;;;;;;;12.48;10.18;;;20.00;99.90;;;;;;4928704;29;20521;-64
2021/06/20 07:43:38;;;;;;;11.32;10.15;;;20.00;99.90;;;;;;4928337;29;20088;-64
2021/06/20 07:46:04;;;;;;;10.93;9.77;;;20.20;99.90;;;;;;4927609;29;20512;-64
2021/06/20 07:48:30;;;;;;;10.77;9.35;;;20.20;99.90;;;;;;4928499;29;20106;-64
2021/06/20 07:50:56;;;;;;;10.95;9.02;;;20.20;99.90;;;;;;4926846;29;20036;-65
2021/06/20 07:53:23;;;;;;;7.68;6.68;;;20.30;99.90;;;;;;4927777;29;20048;-68
2021/06/20 07:55:50;;;;;;;7.15;6.45;;;20.40;99.90;;;;;;4927030;29;20068;-66
2021/06/20 07:58:18;;;;;;;8.82;6.28;;;20.50;99.90;;;;;;4925597;29;20389;-66
2021/06/20 08:00:44;;;;;;;9.52;7.18;;;20.50;99.90;;;;;;4930377;29;20052;-67
2021/06/20 08:03:09;;;;;;;9.00;7.40;;;20.30;99.90;;;;;;4930632;29;20051;-67
2021/06/20 08:05:35;;;;;;;8.50;7.32;;;20.20;99.90;;;;;;4931173;29;20085;-67
2021/06/20 08:08:02;;;;;;;8.60;6.97;;;20.30;99.90;;;;;;4932178;29;20076;-67
2021/06/20 08:10:28;;;;;;;7.20;6.50;;;20.40;99.90;;;;;;4931951;29;20043;-68
2021/06/20 08:12:54;;;;;;;8.35;6.80;;;20.40;99.90;;;;;;4931196;29;20044;-67
2021/06/20 08:15:20;;;;;;;9.25;6.28;;;20.40;99.90;;;;;;4929162;29;20059;-67
2021/06/20 08:17:46;;;;;;;6.20;5.60;;;20.50;99.90;;;;;;4930808;29;20123;-67
2021/06/20 08:20:12;;;;;;;6.97;5.63;;;20.50;99.90;;;;;;4931623;29;20054;-67
2021/06/20 08:22:40;;;;;;;5.75;5.15;;;20.40;99.90;;;;;;4930672;29;20051;-67
2021/06/20 08:25:08;;;;;;;6.00;4.65;;;20.40;99.90;;;;;;4929931;29;20125;-67
2021/06/20 08:27:34;;;;;;;6.18;5.05;;;20.30;99.90;;;;;;4931081;29;20072;-67
2021/06/20 08:30:01;;;;;;;6.80;5.05;;;20.20;99.90;;;;;;4930744;29;20629;-67
2021/06/20 08:32:30;;;;;;;5.85;4.88;;;20.30;99.90;;;;;;4930583;29;20168;-67
2021/06/20 08:34:57;;;;;;;4.88;4.38;;;20.30;99.90;;;;;;4930517;29;20067;-67
2021/06/20 08:37:23;;;;;;;6.22;5.38;;;20.20;99.90;;;;;;4923843;29;20048;-67
2021/06/20 08:39:49;;;;;;;6.40;5.57;;;20.40;99.90;;;;;;4931511;29;20048;-67
2021/06/20 08:42:14;;;;;;;7.10;5.32;;;20.50;99.90;;;;;;4924558;29;20048;-66
2021/06/20 08:44:40;;;;;;;6.13;3.92;;;20.60;99.90;;;;;;4930769;29;20163;-66
2021/06/20 08:47:06;;;;;;;5.93;4.25;;;20.60;99.90;;;;;;4931072;29;20095;-66
2021/06/20 08:49:34;;;;;;;3.88;3.28;;;20.70;99.90;;;;;;4930090;29;20052;-67
2021/06/20 08:52:02;;;;;;;4.53;3.33;;;20.70;99.90;;;;;;4930358;29;20055;-66
2021/06/20 08:54:29;;;;;;;5.53;3.90;;;20.70;99.90;;;;;;4930251;29;20056;-66
2021/06/20 08:56:55;;;;;;;4.90;3.53;;;20.70;99.90;;;;;;4929575;29;20051;-66
2021/06/20 08:59:24;;;;;;;3.08;2.53;;;20.70;99.90;;;;;;4930976;29;20104;-66
2021/06/20 09:01:51;;;;;;;4.15;2.88;;;20.80;99.90;;;;;;4930938;29;20090;-66
2021/06/20 09:04:27;;;;;;;5.88;2.40;;;20.80;99.90;;;;;;4920755;29;20051;-66
2021/06/20 09:06:53;;;;;;;3.75;2.80;;;20.90;99.90;;;;;;4929307;29;20052;-66
2021/06/20 09:09:35;;;;;;;3.55;3.20;;;20.80;99.90;;;;;;4930088;29;20059;-66
2021/06/20 09:12:13;;;;;;;4.57;3.95;;;20.80;99.90;;;;;;4930528;29;20076;-67
2021/06/20 09:14:47;;;;;;;4.95;4.00;;;20.80;99.90;;;;;;4930759;29;20055;-67
2021/06/20 09:17:24;;;;;;;6.78;4.53;;;20.70;99.90;;;;;;4930785;29;20104;-67
2021/06/20 09:19:56;;;;;;;4.65;3.70;;;20.80;99.90;;;;;;4930339;29;20091;-65
2021/06/20 09:22:22;;;;;;;4.38;3.90;;;20.70;99.90;;;;;;4929989;29;20048;-66
2021/06/20 09:25:01;;;;;;;4.15;3.35;;;20.80;99.90;;;;;;4929927;29;20067;-66
2021/06/20 09:27:27;;;;;;;3.70;2.80;;;20.80;99.90;;;;;;4929380;29;20055;-66
2021/06/20 09:29:52;;;;;;;4.55;3.60;;;20.70;99.90;;;;;;4930627;29;20041;-66
2021/06/20 09:32:18;;;;;;;4.55;3.17;;;20.60;99.90;;;;;;4930113;29;20055;-66
2021/06/20 09:34:49;;;;;;;3.47;3.13;;;20.70;99.90;;;;;;4929549;29;20048;-67
2021/06/20 09:37:19;;;;;;;3.97;3.40;;;20.60;99.90;;;;;;4929122;29;20074;-66
2021/06/20 09:39:46;;;;;;;5.00;3.20;;;20.50;99.90;;;;;;4929326;29;20112;-66
2021/06/20 09:42:15;;;;;;;3.70;3.30;;;20.40;99.90;;;;;;4928129;29;20051;-66
2021/06/20 09:44:45;;;;;;;3.93;2.50;;;20.50;99.90;;;;;;4929388;29;20048;-66
2021/06/20 09:47:20;;;;;;;3.28;2.83;;;20.60;99.90;;;;;;4927893;29;20319;-66
2021/06/20 09:49:53;;;;;;;2.90;2.50;;;20.50;99.90;;;;;;4917669;29;20148;-66
2021/06/20 09:52:30;;;;;;;3.70;2.47;;;20.50;99.90;;;;;;4929240;29;20051;-66
2021/06/20 09:54:59;;;;;;;3.95;2.40;;;20.40;99.90;;;;;;4929193;29;20044;-66
2021/06/20 09:57:25;;;;;;;2.90;2.30;;;20.30;99.90;;;;;;4929089;29;20052;-67
2021/06/20 10:00:03;;;;;;;3.67;2.53;;;20.30;99.90;;;;;;4929426;29;20084;-66
2021/06/20 10:02:30;;;;;;;2.90;2.60;;;20.30;99.90;;;;;;4928616;29;20044;-67
2021/06/20 10:04:58;;;;;;;3.10;2.80;;;20.40;99.90;;;;;;4921139;29;20055;-67
2021/06/20 10:07:28;;;;;;;3.13;2.83;;;20.40;99.90;;;;;;4927576;29;20087;-67
2021/06/20 10:09:58;;;;;;;3.33;2.50;;;20.40;99.90;;;;;;4928722;29;20512;-67
2021/06/20 10:12:25;;;;;;;2.42;1.90;;;20.40;99.90;;;;;;4929230;29;20058;-67
2021/06/20 10:14:53;;;;;;;3.42;1.90;;;20.40;99.90;;;;;;4929943;29;20040;-67
2021/06/20 10:17:41;;;;;;;2.53;1.52;;;20.40;99.90;;;;;;4929573;29;20048;-67
2021/06/20 10:20:10;;;;;;;3.10;1.80;;;20.50;99.90;;;;;;4929692;29;20059;-67
2021/06/20 10:22:44;;;;;;;2.28;1.83;;;20.50;99.90;;;;;;4927814;29;20060;-67
2021/06/20 10:25:26;;;;;;;2.33;1.30;;;20.50;99.90;;;;;;4929796;29;20048;-67
2021/06/20 10:28:12;;;;;;;1.33;1.23;;;20.60;99.90;;;;;;4916504;29;20055;-67
2021/06/20 10:30:38;;;;;;;1.55;1.45;;;20.70;99.90;;;;;;4928969;29;20147;-67
2021/06/20 10:33:12;;;;;;;2.40;1.58;;;20.80;99.90;;;;;;4929031;29;20100;-67
2021/06/20 10:35:43;;;;;;;4.35;2.00;;;20.70;99.90;;;;;;4928328;29;20413;-67
2021/06/20 10:38:37;;;;;;;3.17;1.60;;;20.60;99.90;;;;;;4929002;29;20055;-67
2021/06/20 10:41:09;;;;;;;2.47;1.30;;;20.50;99.90;;;;;;4917429;29;20048;-66
2021/06/20 10:43:35;;;;;;;3.78;1.70;;;20.30;99.90;;;;;;4928464;29;20103;-66
2021/06/20 10:46:13;;;;;;;1.95;1.10;;;20.40;99.90;;;;;;4928743;29;20070;-66
2021/06/20 10:48:38;;;;;;;1.65;1.10;;;20.40;99.90;;;;;;4928318;29;20058;-66
2021/06/20 10:51:19;;;;;;;1.13;1.02;;;20.50;99.90;;;;;;4929127;29;20424;-66
2021/06/20 10:53:45;;;;;;;3.78;1.17;;;20.50;99.90;;;;;;4928052;29;20456;-67
2021/06/20 10:56:27;;;;;;;2.22;1.20;;;20.40;99.90;;;;;;4928460;29;20123;-67
2021/06/20 10:58:55;;;;;;;2.50;1.35;;;20.40;99.90;;;;;;4928762;29;20104;-67
2021/06/20 11:01:23;;;;;;;2.10;1.30;;;20.30;99.90;;;;;;4928062;29;20052;-68
2021/06/20 11:03:51;;;;;;;1.63;0.90;;;20.20;99.90;;;;;;4928281;29;20052;-66
2021/06/20 11:06:19;;;;;;;1.77;1.00;;;20.20;99.90;;;;;;4927850;29;20060;-66
2021/06/20 11:08:56;;;;;;;1.25;1.00;;;20.20;99.90;;;;;;4927979;29;20044;-67
2021/06/20 11:11:28;;;;;;;1.15;0.70;;;20.20;99.90;;;;;;4928423;29;20043;-66
2021/06/20 11:13:57;;;;;;;1.98;1.10;;;20.20;99.90;;;;;;4928024;29;20047;-66
2021/06/20 11:16:29;;;;;;;1.30;0.83;;;20.30;99.90;;;;;;4928318;29;20059;-66
2021/06/20 11:19:23;;;;;;;1.77;1.10;;;20.40;99.90;;;;;;4928267;29;20048;-66
2021/06/20 11:22:06;;;;;;;3.28;1.42;;;20.30;99.90;;;;;;4927691;29;20068;-66
2021/06/20 11:24:37;;;;;;;1.65;1.08;;;20.20;99.90;;;;;;4928859;29;20497;-66
2021/06/20 11:27:07;;;;;;;5.03;1.17;;;20.10;99.90;;;;;;4928843;29;20051;-66
2021/06/20 11:29:47;;;;;;;1.42;0.90;;;20.10;99.90;;;;;;4928481;29;20052;-67
2021/06/20 11:32:20;;;;;;;1.55;0.85;;;20.00;99.90;;;;;;4928407;29;20444;-67
2021/06/20 11:34:52;;;;;;;3.25;1.10;;;20.00;99.90;;;;;;4930944;29;20055;-67
2021/06/20 11:37:21;;;;;;;1.40;0.73;;;19.90;99.90;;;;;;4931986;29;20072;-67
2021/06/20 11:39:48;;;;;;;1.27;0.60;;;20.00;99.90;;;;;;4931806;29;20127;-67
2021/06/20 11:42:37;;;;;;;1.23;0.70;;;20.00;99.90;;;;;;4931482;29;20142;-67
2021/06/20 11:45:09;;;;;;;0.80;0.60;;;19.90;99.90;;;;;;4931114;29;20520;-67
2021/06/20 11:47:41;;;;;;;1.60;0.70;;;20.00;99.90;;;;;;4931575;29;20324;-67
2021/06/20 11:50:15;;;;;;;1.63;0.80;;;20.00;99.90;;;;;;4931293;29;20129;-67
2021/06/20 11:52:49;;;;;;;2.00;0.82;;;20.00;99.90;;;;;;4931559;29;20052;-67
2021/06/20 11:55:23;;;;;;;1.02;0.80;;;20.00;99.90;;;;;;4918967;29;20060;-67
2021/06/20 11:57:50;;;;;;;0.55;0.55;;;19.90;99.90;;;;;;4932109;29;20059;-67
2021/06/20 12:00:22;;;;;;;1.10;0.65;;;20.00;99.90;;;;;;4930995;29;20052;-67
2021/06/20 12:03:07;;;;;;;0.47;0.47;;;20.10;99.90;;;;;;4931625;29;20055;-67
2021/06/20 12:05:35;;;;;;;2.53;0.65;;;20.10;99.90;;;;;;4922623;29;20464;-67
2021/06/20 12:08:03;;;;;;;0.82;0.57;;;20.10;99.90;;;;;;4930818;29;20104;-67
2021/06/20 12:10:30;;;;;;;0.73;0.65;;;20.10;99.90;;;;;;4931236;29;20064;-67
2021/06/20 12:13:05;;;;;;;1.38;0.60;;;20.20;99.90;;;;;;4931073;29;20103;-67
2021/06/20 12:15:36;;;;;;;2.35;0.68;;;20.30;99.90;;;;;;4931137;29;20055;-67
2021/06/20 12:18:15;;;;;;;0.75;0.40;;;20.30;99.90;;;;;;4930966;29;20047;-67
2021/06/20 12:20:46;;;;;;;1.63;0.50;;;20.30;99.90;;;;;;4931837;29;20066;-67
2021/06/20 12:23:32;;;;;;;1.15;0.40;;;20.30;99.90;;;;;;4931122;29;20846;-67
2021/06/20 12:25:58;;;;;;;0.40;0.40;;;20.30;99.90;;;;;;4931833;29;20064;-67
2021/06/20 12:28:24;;;;;;;2.75;0.55;;;20.30;99.90;;;;;;4931167;29;20048;-67
2021/06/20 12:30:53;;;;;;;2.30;0.60;;;20.40;99.90;;;;;;4930573;29;20072;-67
2021/06/20 12:33:21;;;;;;;0.82;0.50;;;20.60;99.90;;;;;;4930756;29;20048;-67
2021/06/20 12:36:00;;;;;;;1.48;0.68;;;20.80;99.90;;;;;;4930627;29;20073;-67
2021/06/20 12:38:29;;;;;;;;;;;21.20;99.90;;;;;;4930771;29;20497;-67
2021/06/20 12:40:55;;;;;;;2.15;0.60;;;21.50;99.90;;;;;;4931006;29;19923;-67